Time;durP1;ratioP1;P1;durP2;ratioP2;P2;SDS_P1;SDS_P2;PMS_P1;PMS_P2;Temp;Humidity;BMP_temperature;BMP_pressure;BME280_temperature;BME280_humidity;BME280_pressure;Samples;Min_cycle;Max_cycle;Signal;HPM_P1;HPM_P2
2023/09/08 00:00:57;;;;;;;14.93;8.50;;;18.10;99.90;;;;;;5012090;28;20025;-73
2023/09/08 00:03:23;;;;;;;21.40;10.73;;;18.10;99.90;;;;;;5012164;28;20024;-73
2023/09/08 00:05:49;;;;;;;19.15;9.02;;;17.90;99.90;;;;;;5012397;28;20486;-74
2023/09/08 00:08:15;;;;;;;23.73;10.25;;;17.90;99.90;;;;;;5012463;28;20476;-73
2023/09/08 00:10:41;;;;;;;22.40;10.88;;;17.80;99.90;;;;;;5011353;28;20064;-73
2023/09/08 00:13:10;;;;;;;18.38;11.13;;;17.70;99.90;;;;;;5011182;28;20034;-73
2023/09/08 00:15:36;;;;;;;14.30;9.27;;;17.70;99.90;;;;;;5011194;28;20034;-74
2023/09/08 00:18:03;;;;;;;22.08;9.32;;;17.60;99.90;;;;;;5011621;28;20034;-72
2023/09/08 00:20:28;;;;;;;14.82;9.38;;;17.60;99.90;;;;;;5012055;28;20014;-72
2023/09/08 00:22:54;;;;;;;17.27;8.10;;;17.50;99.90;;;;;;5011645;28;20034;-72
2023/09/08 00:25:20;;;;;;;16.15;9.18;;;17.60;99.90;;;;;;5012134;28;20138;-74
2023/09/08 00:27:46;;;;;;;15.15;8.80;;;17.60;99.90;;;;;;5011603;28;20159;-71
2023/09/08 00:30:12;;;;;;;17.13;8.07;;;17.60;99.90;;;;;;4993849;28;20037;-73
2023/09/08 00:32:38;;;;;;;17.55;8.90;;;17.60;99.90;;;;;;5011636;28;20053;-73
2023/09/08 00:35:07;;;;;;;16.85;9.23;;;17.70;99.90;;;;;;4993110;28;20034;-72
2023/09/08 00:37:33;;;;;;;14.30;7.78;;;17.70;99.90;;;;;;5011532;28;20026;-73
2023/09/08 00:39:59;;;;;;;14.40;8.90;;;17.70;99.90;;;;;;5011428;28;20030;-74
2023/09/08 00:42:25;;;;;;;14.13;9.32;;;17.70;99.90;;;;;;5011680;28;20150;-72
2023/09/08 00:44:50;;;;;;;17.77;8.60;;;17.60;99.90;;;;;;5011335;28;20029;-73
2023/09/08 00:47:17;;;;;;;15.63;8.23;;;17.60;99.90;;;;;;5011559;28;20101;-73
2023/09/08 00:49:43;;;;;;;14.18;8.07;;;17.60;99.90;;;;;;4993510;28;20111;-72
2023/09/08 00:52:09;;;;;;;15.45;8.07;;;17.60;99.90;;;;;;5011388;28;20077;-73
2023/09/08 00:54:35;;;;;;;14.70;8.70;;;17.60;99.90;;;;;;4993542;28;20034;-71
2023/09/08 00:57:03;;;;;;;15.13;8.57;;;17.60;99.90;;;;;;5011381;28;20108;-72
2023/09/08 00:59:32;;;;;;;17.23;8.65;;;17.50;99.90;;;;;;5011150;28;20040;-73
2023/09/08 01:01:58;;;;;;;15.98;8.32;;;17.50;99.90;;;;;;4993625;28;20065;-72
2023/09/08 01:04:24;;;;;;;14.40;8.70;;;17.50;99.90;;;;;;4993468;28;20028;-73
2023/09/08 01:06:51;;;;;;;15.48;8.20;;;17.50;99.90;;;;;;4992618;28;20108;-72
2023/09/08 01:09:19;;;;;;;12.40;8.57;;;17.50;99.90;;;;;;5011288;28;20113;-73
2023/09/08 01:11:45;;;;;;;13.68;8.27;;;17.50;99.90;;;;;;5010662;28;20053;-74
2023/09/08 01:14:17;;;;;;;16.10;8.63;;;17.40;99.90;;;;;;4993467;28;20087;-73
2023/09/08 01:16:43;;;;;;;14.52;7.85;;;17.40;99.90;;;;;;5010882;28;20124;-73
2023/09/08 01:19:13;;;;;;;15.43;8.90;;;17.40;99.90;;;;;;5010822;28;20109;-72
2023/09/08 01:22:00;;;;;;;13.23;8.02;;;17.40;99.90;;;;;;5006967;28;20034;-72
2023/09/08 01:24:53;;;;;;;14.70;8.65;;;17.30;99.90;;;;;;5010149;28;20022;-74
2023/09/08 01:27:21;;;;;;;17.23;9.00;;;17.20;99.90;;;;;;4988919;28;20026;-72
2023/09/08 01:29:49;;;;;;;17.20;8.82;;;17.10;99.90;;;;;;5010647;28;20025;-72
2023/09/08 01:32:16;;;;;;;15.68;9.20;;;17.10;99.90;;;;;;5010430;28;20029;-72
2023/09/08 01:34:42;;;;;;;14.52;9.38;;;17.30;99.90;;;;;;5010978;28;20056;-73
2023/09/08 01:37:08;;;;;;;15.65;8.32;;;17.00;99.90;;;;;;4992404;28;20050;-72
2023/09/08 01:39:34;;;;;;;15.10;8.85;;;17.10;99.90;;;;;;5010702;28;20101;-74
2023/09/08 01:42:00;;;;;;;16.23;8.82;;;17.00;99.90;;;;;;4992757;28;20085;-74
2023/09/08 01:44:25;;;;;;;12.95;8.65;;;17.00;99.90;;;;;;4998443;28;20433;-73
2023/09/08 01:46:56;;;;;;;13.80;8.45;;;17.00;99.90;;;;;;4989694;28;20052;-73
2023/09/08 01:49:23;;;;;;;15.55;8.98;;;16.90;99.90;;;;;;4994945;28;20164;-73
2023/09/08 01:51:49;;;;;;;16.30;7.85;;;16.80;99.90;;;;;;4992791;28;20034;-73
2023/09/08 01:54:17;;;;;;;13.43;8.02;;;16.70;99.90;;;;;;5004099;28;20041;-73
2023/09/08 01:56:43;;;;;;;13.63;7.53;;;16.70;99.90;;;;;;5010613;28;20374;-74
2023/09/08 01:59:09;;;;;;;14.18;7.75;;;16.70;99.90;;;;;;4992774;28;20038;-73
2023/09/08 02:01:34;;;;;;;16.23;8.30;;;16.80;99.90;;;;;;4993007;28;20033;-73
2023/09/08 02:04:01;;;;;;;16.00;8.75;;;16.80;99.90;;;;;;5006509;28;20022;-73
2023/09/08 02:06:26;;;;;;;22.55;14.00;;;16.90;99.90;;;;;;5009954;28;20022;-73
2023/09/08 02:08:52;;;;;;;36.35;22.85;;;16.80;99.90;;;;;;5009111;28;20038;-74
2023/09/08 02:11:18;;;;;;;38.70;23.00;;;16.70;99.90;;;;;;5010378;28;20117;-73
2023/09/08 02:13:44;;;;;;;25.38;15.15;;;16.70;99.90;;;;;;5009424;28;20084;-74
2023/09/08 02:16:16;;;;;;;17.55;10.15;;;16.60;99.90;;;;;;5009090;28;20824;-73
2023/09/08 02:18:43;;;;;;;;;;;16.70;99.90;;;;;;5013355;28;20030;-72
2023/09/08 02:21:09;;;;;;;16.38;8.30;;;16.70;99.90;;;;;;4978131;28;19913;-74
2023/09/08 02:23:35;;;;;;;13.77;8.02;;;16.70;99.90;;;;;;4976753;28;20114;-74
2023/09/08 02:26:00;;;;;;;13.40;7.15;;;16.70;99.90;;;;;;4991893;28;20044;-74
2023/09/08 02:28:27;;;;;;;13.95;8.98;;;16.70;99.90;;;;;;4989746;28;20031;-73
2023/09/08 02:30:54;;;;;;;14.15;8.48;;;16.70;99.90;;;;;;4996896;28;20113;-74
2023/09/08 02:33:20;;;;;;;13.02;7.85;;;16.80;99.90;;;;;;4987216;28;20072;-73
2023/09/08 02:35:47;;;;;;;11.48;7.10;;;16.70;99.90;;;;;;4993650;28;20030;-73
2023/09/08 02:38:13;;;;;;;12.82;7.65;;;;;;;;;;4993768;28;20037;-74
2023/09/08 02:40:39;;;;;;;13.57;7.97;;;16.50;99.90;;;;;;4995917;28;20056;-74
2023/09/08 02:43:05;;;;;;;13.25;7.75;;;16.50;99.90;;;;;;4997489;28;20458;-74
2023/09/08 02:45:31;;;;;;;13.93;8.07;;;16.50;99.90;;;;;;4997897;28;20109;-74
2023/09/08 02:47:57;;;;;;;14.52;8.50;;;16.50;99.90;;;;;;5014612;28;20452;-74
2023/09/08 02:50:23;;;;;;;13.48;8.40;;;16.50;99.90;;;;;;4997381;28;20026;-74
2023/09/08 02:52:49;;;;;;;13.73;7.68;;;16.40;99.90;;;;;;4997037;28;20165;-74
2023/09/08 02:55:16;;;;;;;15.63;8.48;;;;;;;;;;5014901;28;20065;-73
2023/09/08 02:57:41;;;;;;;13.60;7.60;;;16.30;99.90;;;;;;5014463;28;20040;-74
2023/09/08 03:00:08;;;;;;;13.73;8.15;;;16.20;99.90;;;;;;4997297;28;20097;-74
2023/09/08 03:02:33;;;;;;;13.13;7.88;;;16.20;99.90;;;;;;5014883;28;20140;-74
2023/09/08 03:05:00;;;;;;;14.57;8.15;;;16.20;99.90;;;;;;5014760;28;20100;-74
2023/09/08 03:07:27;;;;;;;14.13;7.78;;;16.30;99.90;;;;;;5014871;28;20022;-74
2023/09/08 03:09:53;;;;;;;15.18;7.63;;;16.20;99.90;;;;;;4996776;28;20510;-74
2023/09/08 03:12:21;;;;;;;15.25;7.90;;;16.20;99.90;;;;;;4996837;28;20038;-73
2023/09/08 03:14:46;;;;;;;15.25;8.77;;;16.20;99.90;;;;;;5014560;28;20032;-74
2023/09/08 03:17:12;;;;;;;14.05;8.68;;;16.20;99.90;;;;;;4995092;28;20033;-74
2023/09/08 03:19:39;;;;;;;13.52;7.90;;;16.20;99.90;;;;;;5014244;28;20492;-73
2023/09/08 03:22:06;;;;;;;14.25;8.23;;;16.10;99.90;;;;;;4996792;28;20363;-73
2023/09/08 03:24:32;;;;;;;14.48;8.15;;;16.10;99.90;;;;;;5006757;28;20032;-73
2023/09/08 03:26:58;;;;;;;17.85;7.70;;;16.10;99.90;;;;;;4996688;28;20444;-73
2023/09/08 03:29:24;;;;;;;13.98;8.73;;;16.00;99.90;;;;;;4996548;28;20042;-73
2023/09/08 03:31:51;;;;;;;17.08;8.63;;;16.00;99.90;;;;;;5014288;28;20040;-73
2023/09/08 03:34:20;;;;;;;15.90;7.60;;;15.90;99.90;;;;;;4996786;28;20486;-74
2023/09/08 03:36:47;;;;;;;15.00;7.80;;;15.90;99.90;;;;;;4996487;28;20029;-73
2023/09/08 03:39:13;;;;;;;12.88;7.43;;;16.00;99.90;;;;;;4996799;28;20034;-73
2023/09/08 03:41:39;;;;;;;14.23;7.95;;;15.90;99.90;;;;;;5013989;28;20517;-74
2023/09/08 03:44:05;;;;;;;17.17;8.68;;;16.00;99.90;;;;;;4996291;28;20040;-74
2023/09/08 03:46:30;;;;;;;15.60;7.95;;;16.00;99.90;;;;;;4991806;28;20088;-74
2023/09/08 03:49:00;;;;;;;14.65;8.15;;;16.00;99.90;;;;;;4995584;28;20121;-73
2023/09/08 03:51:27;;;;;;;14.60;7.55;;;16.00;99.90;;;;;;4987145;28;20041;-74
2023/09/08 03:53:54;;;;;;;13.02;7.50;;;16.00;99.90;;;;;;5007412;28;20030;-74
2023/09/08 03:56:21;;;;;;;16.05;8.13;;;16.00;99.90;;;;;;4987279;28;20516;-74
2023/09/08 03:58:48;;;;;;;14.30;7.78;;;16.00;99.90;;;;;;4983259;28;20049;-74
2023/09/08 04:01:13;;;;;;;14.50;8.18;;;16.00;99.90;;;;;;5012544;28;20053;-74
2023/09/08 04:03:39;;;;;;;16.75;8.13;;;15.90;99.90;;;;;;5013661;28;20026;-73
2023/09/08 04:06:05;;;;;;;14.93;7.95;;;16.00;99.90;;;;;;4996085;28;20040;-72
2023/09/08 04:08:32;;;;;;;13.60;6.93;;;15.60;99.90;;;;;;4995338;28;20034;-74
2023/09/08 04:10:58;;;;;;;13.65;7.32;;;15.80;99.90;;;;;;5011971;28;20033;-74
2023/09/08 04:13:25;;;;;;;17.65;9.68;;;15.90;99.90;;;;;;4993102;28;20034;-74
2023/09/08 04:15:51;;;;;;;13.00;7.47;;;15.80;99.90;;;;;;4987189;28;20033;-74
2023/09/08 04:18:16;;;;;;;20.65;9.02;;;15.90;99.90;;;;;;4990650;28;20045;-74
2023/09/08 04:20:43;;;;;;;16.58;8.30;;;15.90;99.90;;;;;;4994114;28;20041;-74
2023/09/08 04:23:09;;;;;;;14.75;9.05;;;16.00;99.90;;;;;;4994776;28;20399;-74
2023/09/08 04:25:36;;;;;;;14.30;8.57;;;16.00;99.90;;;;;;4994157;28;20144;-74
2023/09/08 04:28:02;;;;;;;18.13;8.95;;;16.00;99.90;;;;;;4983961;28;20042;-73
2023/09/08 04:30:28;;;;;;;16.33;9.27;;;16.30;99.90;;;;;;5013270;28;20022;-73
2023/09/08 04:32:54;;;;;;;15.10;9.02;;;16.50;99.90;;;;;;4993960;28;20042;-74
2023/09/08 04:35:20;;;;;;;13.90;9.05;;;16.90;99.90;;;;;;5012693;28;20073;-74
2023/09/08 04:37:46;;;;;;;13.80;7.78;;;17.00;99.90;;;;;;4989061;28;20033;-74
2023/09/08 04:40:11;;;;;;;23.23;9.45;;;17.30;99.90;;;;;;5011465;28;20018;-74
2023/09/08 04:42:38;;;;;;;19.73;9.63;;;17.70;99.90;;;;;;5009158;28;20030;-74
2023/09/08 04:45:05;;;;;;;12.60;8.23;;;18.00;99.90;;;;;;4990922;28;20612;-74
2023/09/08 04:47:32;;;;;;;16.23;8.57;;;18.40;99.90;;;;;;4990562;28;20036;-73
2023/09/08 04:49:58;;;;;;;25.00;8.63;;;18.80;99.90;;;;;;4993476;28;20032;-73
2023/09/08 04:52:25;;;;;;;15.80;8.18;;;19.10;99.90;;;;;;4994969;28;20045;-74
2023/09/08 04:54:50;;;;;;;26.13;9.38;;;19.60;99.90;;;;;;4990759;28;20374;-73
2023/09/08 04:57:16;;;;;;;15.48;8.60;;;19.60;99.90;;;;;;4991410;28;20021;-73
2023/09/08 04:59:46;;;;;;;16.90;9.77;;;20.30;99.90;;;;;;4990963;28;20485;-73
2023/09/08 05:02:12;;;;;;;20.08;10.35;;;20.20;99.90;;;;;;5007669;28;20061;-74
2023/09/08 05:04:38;;;;;;;18.55;10.75;;;20.60;99.90;;;;;;4984277;28;20125;-73
2023/09/08 05:07:04;;;;;;;22.02;9.73;;;21.00;99.90;;;;;;4993192;28;20034;-74
2023/09/08 05:09:30;;;;;;;18.15;11.25;;;21.10;99.90;;;;;;5012534;28;20054;-74
2023/09/08 05:11:59;;;;;;;16.05;9.55;;;21.40;99.60;;;;;;4991581;28;20060;-74
2023/09/08 05:14:25;;;;;;;20.70;10.55;;;21.60;99.90;;;;;;4993398;28;20489;-74
2023/09/08 05:16:55;;;;;;;18.70;10.02;;;21.80;99.90;;;;;;5001763;28;20035;-74
2023/09/08 05:19:23;;;;;;;25.13;10.82;;;21.90;99.70;;;;;;4992237;28;20512;-74
2023/09/08 05:21:54;;;;;;;20.65;10.43;;;21.80;99.40;;;;;;5010399;28;20040;-73
2023/09/08 05:24:20;;;;;;;18.42;10.48;;;21.50;99.90;;;;;;4990299;28;20038;-74
2023/09/08 05:26:47;;;;;;;17.42;10.13;;;21.00;99.90;;;;;;4984261;28;20088;-73
2023/09/08 05:29:13;;;;;;;24.30;11.00;;;20.70;99.90;;;;;;5009317;28;20037;-74
2023/09/08 05:31:39;;;;;;;21.13;10.82;;;20.30;99.90;;;;;;4988981;28;20030;-74
2023/09/08 05:34:05;;;;;;;23.45;11.98;;;20.20;99.90;;;;;;4992416;28;20581;-74
2023/09/08 05:36:32;;;;;;;22.48;12.23;;;20.10;99.90;;;;;;4990029;28;20073;-74
2023/09/08 05:38:59;;;;;;;20.35;12.55;;;20.00;99.90;;;;;;4988437;28;20034;-74
2023/09/08 05:41:25;;;;;;;20.08;11.95;;;20.00;99.90;;;;;;5010686;28;20406;-74
2023/09/08 05:43:50;;;;;;;21.55;13.32;;;19.70;99.90;;;;;;4985806;28;20034;-74
2023/09/08 05:46:18;;;;;;;24.10;15.02;;;19.70;99.90;;;;;;4973810;28;20489;-74
2023/09/08 05:48:44;;;;;;;22.77;13.82;;;19.80;99.90;;;;;;4988423;28;20026;-74
2023/09/08 05:51:10;;;;;;;22.80;14.05;;;19.90;99.90;;;;;;5011823;28;20042;-74
2023/09/08 05:53:39;;;;;;;22.55;14.18;;;20.00;99.90;;;;;;4994312;28;20041;-73
2023/09/08 05:56:06;;;;;;;24.50;14.23;;;20.10;99.90;;;;;;4994232;28;20080;-74
2023/09/08 05:58:33;;;;;;;20.50;13.15;;;20.00;99.90;;;;;;4994504;28;20076;-74
2023/09/08 06:01:01;;;;;;;25.08;14.52;;;20.20;99.90;;;;;;5012215;28;20022;-73
2023/09/08 06:03:27;;;;;;;23.23;13.85;;;20.30;99.90;;;;;;4978188;28;20078;-73
2023/09/08 06:05:53;;;;;;;16.65;12.18;;;20.50;99.90;;;;;;4994156;28;20026;-74
2023/09/08 06:08:20;;;;;;;22.83;14.18;;;20.60;99.90;;;;;;4994174;28;20375;-74
2023/09/08 06:10:46;;;;;;;27.92;12.68;;;20.60;99.90;;;;;;4994016;28;20037;-74
2023/09/08 06:13:13;;;;;;;24.88;14.40;;;20.70;99.90;;;;;;4994303;28;20121;-73
2023/09/08 06:15:40;;;;;;;25.30;12.85;;;20.60;99.90;;;;;;4997522;28;20022;-74
2023/09/08 06:18:06;;;;;;;26.02;13.93;;;20.90;99.90;;;;;;4998272;28;20124;-74
2023/09/08 06:20:32;;;;;;;25.33;13.70;;;20.80;99.90;;;;;;4998055;28;20040;-74
2023/09/08 06:22:58;;;;;;;25.58;13.80;;;21.00;99.90;;;;;;4998685;28;20038;-73
2023/09/08 06:25:25;;;;;;;34.30;13.15;;;21.00;99.90;;;;;;4997699;28;20037;-73
2023/09/08 06:27:50;;;;;;;24.35;13.55;;;20.90;99.90;;;;;;5015906;28;20038;-74
2023/09/08 06:30:18;;;;;;;23.20;13.20;;;20.90;99.90;;;;;;4997296;28;20482;-74
2023/09/08 06:32:44;;;;;;;24.90;13.38;;;21.20;99.90;;;;;;5015627;28;20125;-73
2023/09/08 06:35:11;;;;;;;24.40;14.43;;;21.30;99.90;;;;;;4997904;28;20026;-73
2023/09/08 06:37:38;;;;;;;23.42;14.30;;;21.30;99.90;;;;;;4997690;28;20557;-74
2023/09/08 06:40:05;;;;;;;30.15;12.85;;;21.50;99.90;;;;;;4997663;28;20382;-73
2023/09/08 06:42:33;;;;;;;21.65;12.70;;;21.70;99.90;;;;;;4997722;28;20022;-73
2023/09/08 06:45:08;;;;;;;25.83;13.18;;;21.60;99.90;;;;;;4997640;28;20026;-73
2023/09/08 06:47:34;;;;;;;23.10;13.75;;;21.50;99.90;;;;;;4997683;28;20029;-74
2023/09/08 06:50:00;;;;;;;23.95;13.82;;;21.60;99.90;;;;;;4997637;28;20034;-74
2023/09/08 06:52:26;;;;;;;22.23;13.43;;;21.50;99.90;;;;;;4997308;28;20033;-73
2023/09/08 06:54:52;;;;;;;29.17;13.48;;;21.80;99.90;;;;;;5014766;28;20531;-73
2023/09/08 06:57:19;;;;;;;23.25;13.70;;;21.50;99.90;;;;;;4997455;28;20080;-74
2023/09/08 06:59:46;;;;;;;21.20;12.43;;;21.90;99.90;;;;;;4997115;28;20026;-73
2023/09/08 07:02:12;;;;;;;21.15;13.10;;;22.00;99.90;;;;;;5015090;28;20025;-73
2023/09/08 07:04:38;;;;;;;21.05;12.57;;;21.70;99.90;;;;;;4997115;28;20030;-73
2023/09/08 07:07:07;;;;;;;18.30;11.13;;;21.70;99.90;;;;;;4997467;28;20088;-73
2023/09/08 07:09:38;;;;;;;19.13;11.20;;;21.70;99.90;;;;;;4996756;28;20064;-73
2023/09/08 07:12:06;;;;;;;20.77;11.13;;;22.00;99.90;;;;;;4997381;28;20022;-73
2023/09/08 07:14:32;;;;;;;15.52;9.88;;;22.20;99.90;;;;;;4997400;28;20029;-73
2023/09/08 07:16:58;;;;;;;12.40;8.88;;;22.60;99.90;;;;;;4996946;28;20560;-74
2023/09/08 07:19:26;;;;;;;20.00;10.52;;;22.80;99.50;;;;;;4996673;28;20446;-73
2023/09/08 07:21:52;;;;;;;21.70;9.90;;;23.20;99.90;;;;;;4996798;28;20030;-73
2023/09/08 07:24:18;;;;;;;21.05;9.80;;;23.60;99.80;;;;;;4996601;28;20052;-74
2023/09/08 07:26:44;;;;;;;14.95;8.75;;;22.80;97.40;;;;;;5013783;28;20529;-74
2023/09/08 07:29:10;;;;;;;17.08;9.27;;;22.50;97.90;;;;;;5014280;28;20084;-73
2023/09/08 07:31:36;;;;;;;13.70;8.50;;;22.90;98.30;;;;;;4996935;28;20030;-73
2023/09/08 07:34:02;;;;;;;18.85;9.70;;;23.30;98.10;;;;;;5014542;28;20041;-73
2023/09/08 07:36:28;;;;;;;14.27;8.02;;;23.50;97.50;;;;;;5014689;28;20433;-74
2023/09/08 07:38:54;;;;;;;15.73;8.25;;;23.80;95.30;;;;;;4996382;28;20500;-73
2023/09/08 07:41:20;;;;;;;9.88;5.93;;;24.10;95.90;;;;;;4996872;28;20110;-73
2023/09/08 07:43:46;;;;;;;13.88;6.97;;;24.50;95.40;;;;;;5013958;28;20057;-73
2023/09/08 07:46:14;;;;;;;14.15;6.55;;;23.90;91.30;;;;;;5014172;28;20025;-73
2023/09/08 07:48:40;;;;;;;10.98;6.28;;;24.10;91.70;;;;;;5013967;28;20167;-73
2023/09/08 07:51:06;;;;;;;17.23;7.72;;;24.30;99.90;;;;;;5014218;28;20078;-73
2023/09/08 07:53:31;;;;;;;15.23;7.00;;;24.60;91.40;;;;;;5013835;28;20034;-74
2023/09/08 07:55:57;;;;;;;12.40;6.55;;;24.70;99.90;;;;;;4996452;28;20077;-74
2023/09/08 07:58:23;;;;;;;18.60;6.85;;;24.80;93.50;;;;;;5013932;28;20457;-73
2023/09/08 08:00:49;;;;;;;17.48;7.78;;;25.00;91.00;;;;;;5013981;28;20018;-73
2023/09/08 08:03:15;;;;;;;15.68;6.65;;;25.10;91.00;;;;;;5013723;28;20117;-73
2023/09/08 08:05:40;;;;;;;14.75;6.45;;;25.20;89.20;;;;;;5013463;28;20485;-73
2023/09/08 08:08:07;;;;;;;11.43;6.40;;;24.40;89.80;;;;;;5013738;28;20030;-73
2023/09/08 08:10:33;;;;;;;13.20;7.18;;;24.30;90.10;;;;;;5013485;28;20030;-73
2023/09/08 08:12:59;;;;;;;15.65;8.75;;;24.00;90.30;;;;;;5013868;28;20378;-73
2023/09/08 08:15:38;;;;;;;12.18;7.25;;;24.70;91.60;;;;;;5012857;28;20112;-74
2023/09/08 08:18:05;;;;;;;11.60;7.22;;;25.00;91.60;;;;;;5013898;28;20026;-73
2023/09/08 08:20:34;;;;;;;14.15;7.32;;;25.30;91.30;;;;;;5013435;28;20033;-74
2023/09/08 08:23:03;;;;;;;16.00;7.07;;;25.40;89.10;;;;;;5013341;28;20113;-73
2023/09/08 08:25:28;;;;;;;18.20;7.30;;;25.20;89.00;;;;;;5013445;28;20025;-73
2023/09/08 08:27:56;;;;;;;12.02;6.35;;;25.40;93.10;;;;;;5013417;28;20026;-73
2023/09/08 08:30:22;;;;;;;17.35;6.90;;;25.20;88.60;;;;;;5013088;28;20389;-73
2023/09/08 08:32:50;;;;;;;13.50;6.70;;;25.30;89.70;;;;;;5012999;28;20423;-73
2023/09/08 08:35:16;;;;;;;10.68;5.82;;;25.30;87.20;;;;;;5012913;28;20037;-74
2023/09/08 08:37:42;;;;;;;8.25;5.28;;;25.60;89.80;;;;;;5012166;28;20374;-73
2023/09/08 08:40:11;;;;;;;15.60;6.20;;;25.60;86.40;;;;;;5013142;28;20025;-73
2023/09/08 08:42:37;;;;;;;11.07;5.78;;;25.20;85.30;;;;;;5012887;28;20026;-73
2023/09/08 08:45:04;;;;;;;12.55;5.60;;;25.50;86.70;;;;;;5012910;28;20028;-73
2023/09/08 08:47:30;;;;;;;11.43;5.88;;;25.60;87.20;;;;;;5013120;28;20022;-73
2023/09/08 08:49:58;;;;;;;14.23;5.38;;;25.80;84.80;;;;;;5013043;28;20029;-73
2023/09/08 08:52:28;;;;;;;11.32;5.47;;;25.80;84.10;;;;;;5012994;28;20478;-73
2023/09/08 08:54:54;;;;;;;14.27;4.90;;;25.90;91.00;;;;;;5012366;28;20108;-73
2023/09/08 08:57:21;;;;;;;13.95;6.03;;;26.10;93.00;;;;;;5012970;28;20030;-73
2023/09/08 08:59:49;;;;;;;10.98;5.32;;;25.50;85.10;;;;;;5012706;28;20037;-73
2023/09/08 09:02:15;;;;;;;16.55;5.35;;;25.50;83.40;;;;;;5013473;28;20354;-73
2023/09/08 09:04:41;;;;;;;7.22;4.65;;;25.50;81.80;;;;;;5012317;28;20021;-73
2023/09/08 09:07:08;;;;;;;7.78;4.30;;;25.50;82.30;;;;;;5012727;28;20029;-73
2023/09/08 09:09:34;;;;;;;8.68;4.45;;;25.80;87.00;;;;;;5012550;28;20040;-74
2023/09/08 09:12:02;;;;;;;10.27;4.30;;;25.90;81.60;;;;;;5012609;28;20112;-73
2023/09/08 09:14:28;;;;;;;14.52;5.03;;;26.00;81.90;;;;;;5012623;28;20057;-73
2023/09/08 09:16:56;;;;;;;10.25;4.68;;;26.20;94.00;;;;;;5012385;28;20032;-73
2023/09/08 09:19:31;;;;;;;8.65;4.57;;;26.60;96.40;;;;;;5012734;28;20398;-72
2023/09/08 09:21:58;;;;;;;8.23;4.22;;;26.90;82.10;;;;;;4994108;28;20497;-73
2023/09/08 09:24:45;;;;;;;9.50;4.63;;;26.70;77.70;;;;;;5012414;28;20041;-73
2023/09/08 09:27:12;;;;;;;7.22;3.88;;;26.70;79.10;;;;;;5012459;28;20112;-74
2023/09/08 09:29:46;;;;;;;7.80;3.90;;;26.60;77.10;;;;;;5012224;28;20022;-74
2023/09/08 09:32:12;;;;;;;6.00;3.67;;;26.80;77.60;;;;;;5012163;28;20158;-73
2023/09/08 09:34:53;;;;;;;7.80;3.90;;;26.80;75.90;;;;;;5012250;28;20034;-74
2023/09/08 09:37:19;;;;;;;8.35;3.20;;;26.80;77.60;;;;;;5011791;28;20022;-74
2023/09/08 09:39:50;;;;;;;8.65;4.45;;;26.80;74.00;;;;;;5012216;28;20548;-73
2023/09/08 09:42:16;;;;;;;7.38;4.10;;;26.70;75.30;;;;;;5012269;28;20029;-73
2023/09/08 09:44:42;;;;;;;11.57;4.07;;;26.90;76.20;;;;;;5025330;28;20014;-73
2023/09/08 09:47:09;;;;;;;11.18;4.20;;;27.20;74.80;;;;;;5012117;28;20037;-73
2023/09/08 09:49:48;;;;;;;8.75;3.83;;;27.30;78.20;;;;;;5011542;28;20041;-73
2023/09/08 09:52:24;;;;;;;6.10;3.58;;;27.50;75.50;;;;;;5012209;28;20610;-73
2023/09/08 09:54:51;;;;;;;10.38;3.70;;;27.20;71.50;;;;;;5011920;28;20046;-73
2023/09/08 09:57:21;;;;;;;8.90;4.22;;;27.30;73.30;;;;;;5012184;28;20080;-74
2023/09/08 09:59:50;;;;;;;8.25;3.80;;;27.40;73.70;;;;;;5011875;28;20083;-73
2023/09/08 10:02:20;;;;;;;8.75;3.78;;;27.30;72.60;;;;;;5011941;28;20041;-73
2023/09/08 10:04:49;;;;;;;10.85;4.47;;;27.50;74.80;;;;;;5012179;28;20492;-74
2023/09/08 10:07:16;;;;;;;8.40;3.33;;;27.60;73.90;;;;;;5011754;28;20040;-73
2023/09/08 10:09:42;;;;;;;9.43;4.03;;;27.60;74.10;;;;;;5011785;28;20050;-73
2023/09/08 10:12:11;;;;;;;8.00;3.80;;;27.70;73.50;;;;;;5011693;28;20022;-73
2023/09/08 10:14:40;;;;;;;13.43;4.35;;;27.30;73.60;;;;;;5012185;28;20381;-73
2023/09/08 10:17:11;;;;;;;8.50;3.47;;;27.40;74.20;;;;;;5011616;28;20029;-74
2023/09/08 10:19:41;;;;;;;5.63;3.60;;;27.50;73.80;;;;;;5011826;28;20454;-74
2023/09/08 10:22:12;;;;;;;13.60;4.13;;;27.80;74.40;;;;;;5011768;28;20034;-73
2023/09/08 10:24:40;;;;;;;9.20;4.10;;;27.50;74.10;;;;;;5011851;28;20400;-74
2023/09/08 10:27:12;;;;;;;8.77;4.13;;;27.70;74.30;;;;;;5011647;28;20048;-73
2023/09/08 10:29:39;;;;;;;6.97;4.35;;;27.90;74.30;;;;;;5011545;28;20478;-73
2023/09/08 10:32:07;;;;;;;16.00;4.40;;;28.10;73.90;;;;;;5011604;28;20429;-74
2023/09/08 10:34:35;;;;;;;7.95;4.18;;;28.30;74.20;;;;;;5011672;28;20037;-73
2023/09/08 10:37:01;;;;;;;9.68;4.40;;;28.20;73.90;;;;;;5011629;28;20021;-74
2023/09/08 10:39:41;;;;;;;7.63;4.32;;;28.20;71.10;;;;;;5011545;28;20029;-74
2023/09/08 10:42:20;;;;;;;8.20;4.03;;;28.00;71.40;;;;;;5011608;28;20026;-73
2023/09/08 10:44:51;;;;;;;9.52;5.05;;;27.90;72.10;;;;;;5011298;28;20030;-73
2023/09/08 10:47:30;;;;;;;9.80;4.32;;;27.70;70.60;;;;;;5011758;28;20041;-73
2023/09/08 10:49:58;;;;;;;6.80;4.53;;;28.10;74.70;;;;;;5010952;28;20156;-74
2023/09/08 10:52:24;;;;;;;8.95;4.60;;;28.30;73.10;;;;;;5011533;28;20057;-74
2023/09/08 10:54:52;;;;;;;7.65;4.22;;;28.30;72.00;;;;;;5011052;28;20033;-74
2023/09/08 10:57:22;;;;;;;7.00;4.00;;;28.30;72.10;;;;;;5011315;28;20033;-73
2023/09/08 11:00:00;;;;;;;7.70;4.22;;;28.30;70.70;;;;;;5011469;28;20533;-73
2023/09/08 11:02:41;;;;;;;8.27;4.05;;;28.30;70.90;;;;;;5013905;28;20034;-73
2023/09/08 11:05:13;;;;;;;9.07;4.47;;;28.40;73.20;;;;;;5015175;28;20073;-73
2023/09/08 11:07:40;;;;;;;9.02;3.97;;;28.30;71.00;;;;;;5014604;28;20034;-73
2023/09/08 11:10:07;;;;;;;9.77;4.45;;;28.50;75.20;;;;;;5014665;28;20465;-74
2023/09/08 11:12:34;;;;;;;5.88;4.00;;;28.40;70.60;;;;;;5014590;28;20115;-74
2023/09/08 11:15:04;;;;;;;13.73;4.10;;;28.30;70.60;;;;;;5014678;28;20033;-73
2023/09/08 11:17:31;;;;;;;8.20;3.97;;;28.40;70.70;;;;;;5014543;28;20501;-73
2023/09/08 11:19:57;;;;;;;10.45;4.30;;;28.20;69.10;;;;;;5014788;28;20420;-74
2023/09/08 11:22:25;;;;;;;10.63;3.65;;;28.30;68.90;;;;;;5014610;28;20469;-73
2023/09/08 11:24:52;;;;;;;7.85;4.13;;;28.40;71.20;;;;;;5014288;28;20137;-73
2023/09/08 11:27:19;;;;;;;9.27;3.83;;;28.50;69.00;;;;;;5014192;28;20413;-73
2023/09/08 11:29:45;;;;;;;9.90;3.92;;;28.40;68.40;;;;;;5014451;28;20033;-73
2023/09/08 11:32:11;;;;;;;8.25;3.38;;;28.50;68.70;;;;;;5014027;28;20076;-73
2023/09/08 11:34:37;;;;;;;7.18;3.55;;;28.60;69.10;;;;;;5014267;28;20041;-73
2023/09/08 11:37:13;;;;;;;9.02;3.75;;;28.60;69.30;;;;;;5014063;28;20021;-73
2023/09/08 11:39:43;;;;;;;7.10;3.47;;;28.60;68.50;;;;;;5013141;28;20053;-73
2023/09/08 11:42:11;;;;;;;8.05;3.67;;;28.30;68.40;;;;;;5013979;28;20462;-73
2023/09/08 11:44:37;;;;;;;6.78;3.15;;;28.40;68.40;;;;;;5014144;28;20376;-74
2023/09/08 11:47:06;;;;;;;4.88;3.35;;;28.60;69.70;;;;;;5014123;28;20033;-74
2023/09/08 11:49:41;;;;;;;6.43;3.75;;;28.60;68.30;;;;;;5013881;28;20030;-73
2023/09/08 11:52:07;;;;;;;9.85;3.50;;;28.80;69.80;;;;;;5002023;28;20114;-73
2023/09/08 11:54:35;;;;;;;7.80;3.53;;;28.90;71.70;;;;;;5013614;28;20034;-73
2023/09/08 11:57:03;;;;;;;7.32;3.78;;;28.90;99.90;;;;;;5014264;28;20417;-74
2023/09/08 11:59:32;;;;;;;7.75;3.13;;;28.80;67.80;;;;;;5013545;28;20084;-73
2023/09/08 12:01:58;;;;;;;7.53;4.50;;;28.90;68.80;;;;;;5013913;28;20386;-75
2023/09/08 12:04:24;;;;;;;6.90;3.67;;;28.80;69.00;;;;;;5013880;28;20412;-74
2023/09/08 12:06:52;;;;;;;8.05;3.38;;;28.90;70.90;;;;;;5013794;28;20026;-73
2023/09/08 12:09:20;;;;;;;5.60;3.42;;;29.10;72.00;;;;;;5013034;28;20178;-73
2023/09/08 12:11:46;;;;;;;6.03;3.47;;;29.00;74.10;;;;;;5013513;28;20057;-73
2023/09/08 12:14:13;;;;;;;6.50;3.97;;;;;;;;;;5013414;28;20038;-73
2023/09/08 12:16:40;;;;;;;8.32;4.00;;;;;;;;;;5013524;28;20022;-73
2023/09/08 12:19:07;;;;;;;5.80;3.47;;;;;;;;;;5013543;28;20053;-73
2023/09/08 12:21:53;;;;;;;7.55;3.85;;;29.30;93.10;;;;;;5013446;28;20033;-73
2023/09/08 12:24:19;;;;;;;5.88;3.30;;;29.40;69.00;;;;;;5012985;28;20018;-73
2023/09/08 12:26:45;;;;;;;13.52;3.80;;;29.40;67.20;;;;;;5013541;28;20038;-73
2023/09/08 12:29:14;;;;;;;11.90;4.18;;;29.90;90.40;;;;;;5013236;28;20464;-74
2023/09/08 12:31:40;;;;;;;6.50;3.33;;;29.50;69.60;;;;;;5013624;28;20105;-73
2023/09/08 12:34:08;;;;;;;6.35;3.83;;;29.30;65.10;;;;;;5013237;28;20446;-74
2023/09/08 12:36:36;;;;;;;5.40;3.58;;;29.30;65.20;;;;;;5012640;28;20446;-73
2023/09/08 12:39:05;;;;;;;30.52;3.70;;;;;;;;;;5013295;28;20540;-74
2023/09/08 12:41:31;;;;;;;5.50;3.05;;;29.60;66.90;;;;;;5012774;28;20119;-74